sensor_id;sensor_type;location;lat;lon;timestamp;P1;durP1;ratioP1;P2;durP2;ratioP2
12308;SDS011;6217;48.150;17.142;2023-05-17T00:02:21;0.40;;;0.40;;
12308;SDS011;6217;48.150;17.142;2023-05-17T00:06:27;0.57;;;0.50;;
12308;SDS011;6217;48.150;17.142;2023-05-17T00:10:33;0.40;;;0.40;;
12308;SDS011;6217;48.150;17.142;2023-05-17T00:14:39;1.42;;;0.40;;
12308;SDS011;6217;48.150;17.142;2023-05-17T00:18:45;0.73;;;0.50;;
12308;SDS011;6217;48.150;17.142;2023-05-17T00:22:51;2.45;;;0.50;;
12308;SDS011;6217;48.150;17.142;2023-05-17T00:26:57;0.40;;;0.30;;
12308;SDS011;6217;48.150;17.142;2023-05-17T00:31:02;1.50;;;0.50;;
12308;SDS011;6217;48.150;17.142;2023-05-17T00:35:08;0.40;;;0.40;;
12308;SDS011;6217;48.150;17.142;2023-05-17T00:39:14;0.40;;;0.40;;
12308;SDS011;6217;48.150;17.142;2023-05-17T00:43:20;1.00;;;0.40;;
12308;SDS011;6217;48.150;17.142;2023-05-17T00:47:26;0.30;;;0.30;;
12308;SDS011;6217;48.150;17.142;2023-05-17T00:51:32;0.40;;;0.40;;
12308;SDS011;6217;48.150;17.142;2023-05-17T00:55:39;0.55;;;0.55;;
12308;SDS011;6217;48.150;17.142;2023-05-17T00:59:49;1.10;;;0.30;;
12308;SDS011;6217;48.150;17.142;2023-05-17T01:03:56;0.57;;;0.40;;
12308;SDS011;6217;48.150;17.142;2023-05-17T01:08:02;1.40;;;0.30;;
12308;SDS011;6217;48.150;17.142;2023-05-17T01:12:12;0.70;;;0.52;;
12308;SDS011;6217;48.150;17.142;2023-05-17T01:16:30;0.30;;;0.30;;
12308;SDS011;6217;48.150;17.142;2023-05-17T01:20:44;0.20;;;0.20;;
12308;SDS011;6217;48.150;17.142;2023-05-17T01:24:55;1.77;;;0.30;;
12308;SDS011;6217;48.150;17.142;2023-05-17T01:29:17;0.55;;;0.20;;
12308;SDS011;6217;48.150;17.142;2023-05-17T01:33:28;0.85;;;0.20;;
12308;SDS011;6217;48.150;17.142;2023-05-17T01:37:35;0.22;;;0.20;;
12308;SDS011;6217;48.150;17.142;2023-05-17T01:41:40;1.40;;;0.20;;
12308;SDS011;6217;48.150;17.142;2023-05-17T01:45:56;0.30;;;0.30;;
12308;SDS011;6217;48.150;17.142;2023-05-17T01:50:22;0.30;;;0.30;;
12308;SDS011;6217;48.150;17.142;2023-05-17T01:54:37;0.20;;;0.20;;
12308;SDS011;6217;48.150;17.142;2023-05-17T01:58:51;1.08;;;0.30;;
12308;SDS011;6217;48.150;17.142;2023-05-17T02:02:58;0.22;;;0.22;;
12308;SDS011;6217;48.150;17.142;2023-05-17T02:07:04;0.30;;;0.30;;
12308;SDS011;6217;48.150;17.142;2023-05-17T02:11:10;0.40;;;0.40;;
12308;SDS011;6217;48.150;17.142;2023-05-17T02:15:16;0.30;;;0.30;;
12308;SDS011;6217;48.150;17.142;2023-05-17T02:19:22;1.10;;;0.40;;
12308;SDS011;6217;48.150;17.142;2023-05-17T02:23:28;0.25;;;0.20;;
12308;SDS011;6217;48.150;17.142;2023-05-17T02:27:34;3.92;;;0.40;;
12308;SDS011;6217;48.150;17.142;2023-05-17T02:31:40;0.40;;;0.40;;
12308;SDS011;6217;48.150;17.142;2023-05-17T02:35:47;0.30;;;0.30;;
12308;SDS011;6217;48.150;17.142;2023-05-17T02:39:54;0.30;;;0.30;;
12308;SDS011;6217;48.150;17.142;2023-05-17T02:44:00;0.68;;;0.40;;
12308;SDS011;6217;48.150;17.142;2023-05-17T02:48:06;0.30;;;0.30;;
12308;SDS011;6217;48.150;17.142;2023-05-17T02:52:13;1.00;;;0.30;;
12308;SDS011;6217;48.150;17.142;2023-05-17T02:56:20;0.30;;;0.30;;
12308;SDS011;6217;48.150;17.142;2023-05-17T03:00:26;0.60;;;0.60;;
12308;SDS011;6217;48.150;17.142;2023-05-17T03:04:32;2.05;;;0.30;;
12308;SDS011;6217;48.150;17.142;2023-05-17T03:08:38;0.38;;;0.38;;
12308;SDS011;6217;48.150;17.142;2023-05-17T03:12:45;0.50;;;0.50;;
12308;SDS011;6217;48.150;17.142;2023-05-17T03:16:52;0.73;;;0.30;;
12308;SDS011;6217;48.150;17.142;2023-05-17T03:20:58;2.08;;;0.50;;
12308;SDS011;6217;48.150;17.142;2023-05-17T03:25:04;0.40;;;0.40;;
12308;SDS011;6217;48.150;17.142;2023-05-17T03:29:12;0.77;;;0.50;;
12308;SDS011;6217;48.150;17.142;2023-05-17T03:33:20;0.40;;;0.40;;
12308;SDS011;6217;48.150;17.142;2023-05-17T03:37:26;0.50;;;0.50;;
12308;SDS011;6217;48.150;17.142;2023-05-17T03:41:32;0.50;;;0.50;;
12308;SDS011;6217;48.150;17.142;2023-05-17T03:45:39;0.65;;;0.65;;
12308;SDS011;6217;48.150;17.142;2023-05-17T03:49:45;2.45;;;0.60;;
12308;SDS011;6217;48.150;17.142;2023-05-17T03:53:56;0.70;;;0.70;;
12308;SDS011;6217;48.150;17.142;2023-05-17T03:58:05;0.60;;;0.60;;
12308;SDS011;6217;48.150;17.142;2023-05-17T04:02:13;1.05;;;0.60;;
12308;SDS011;6217;48.150;17.142;2023-05-17T04:06:20;0.70;;;0.70;;
12308;SDS011;6217;48.150;17.142;2023-05-17T04:10:27;1.15;;;0.95;;
12308;SDS011;6217;48.150;17.142;2023-05-17T04:14:33;0.70;;;0.70;;
12308;SDS011;6217;48.150;17.142;2023-05-17T04:18:39;0.70;;;0.70;;
12308;SDS011;6217;48.150;17.142;2023-05-17T04:22:45;0.77;;;0.77;;
12308;SDS011;6217;48.150;17.142;2023-05-17T04:26:51;0.70;;;0.70;;
12308;SDS011;6217;48.150;17.142;2023-05-17T04:31:01;2.33;;;1.00;;
12308;SDS011;6217;48.150;17.142;2023-05-17T04:35:11;3.78;;;1.70;;
12308;SDS011;6217;48.150;17.142;2023-05-17T04:39:21;2.45;;;1.08;;
12308;SDS011;6217;48.150;17.142;2023-05-17T04:43:27;2.33;;;1.13;;
12308;SDS011;6217;48.150;17.142;2023-05-17T04:47:33;1.95;;;1.00;;
12308;SDS011;6217;48.150;17.142;2023-05-17T04:51:39;1.13;;;1.10;;
12308;SDS011;6217;48.150;17.142;2023-05-17T04:55:46;1.20;;;1.10;;
12308;SDS011;6217;48.150;17.142;2023-05-17T04:59:54;1.35;;;1.00;;
12308;SDS011;6217;48.150;17.142;2023-05-17T05:04:00;1.83;;;1.00;;
12308;SDS011;6217;48.150;17.142;2023-05-17T05:08:13;1.13;;;0.90;;
12308;SDS011;6217;48.150;17.142;2023-05-17T05:12:21;1.98;;;0.90;;
12308;SDS011;6217;48.150;17.142;2023-05-17T05:16:28;0.88;;;0.88;;
12308;SDS011;6217;48.150;17.142;2023-05-17T05:20:34;0.98;;;0.90;;
12308;SDS011;6217;48.150;17.142;2023-05-17T05:24:42;1.02;;;1.02;;
12308;SDS011;6217;48.150;17.142;2023-05-17T05:28:48;3.10;;;0.82;;
12308;SDS011;6217;48.150;17.142;2023-05-17T05:32:54;3.47;;;0.95;;
12308;SDS011;6217;48.150;17.142;2023-05-17T05:37:00;1.67;;;0.90;;
12308;SDS011;6217;48.150;17.142;2023-05-17T05:41:06;0.70;;;0.70;;
12308;SDS011;6217;48.150;17.142;2023-05-17T05:45:15;0.90;;;0.90;;
12308;SDS011;6217;48.150;17.142;2023-05-17T05:49:23;2.78;;;0.90;;
12308;SDS011;6217;48.150;17.142;2023-05-17T05:53:30;0.80;;;0.80;;
12308;SDS011;6217;48.150;17.142;2023-05-17T05:57:36;1.08;;;0.90;;
12308;SDS011;6217;48.150;17.142;2023-05-17T06:01:41;2.10;;;1.15;;
12308;SDS011;6217;48.150;17.142;2023-05-17T06:05:48;1.77;;;1.00;;
12308;SDS011;6217;48.150;17.142;2023-05-17T06:09:54;2.53;;;0.95;;
12308;SDS011;6217;48.150;17.142;2023-05-17T06:14:00;2.55;;;0.75;;
12308;SDS011;6217;48.150;17.142;2023-05-17T06:18:06;0.60;;;0.60;;
12308;SDS011;6217;48.150;17.142;2023-05-17T06:22:12;0.80;;;0.60;;
12308;SDS011;6217;48.150;17.142;2023-05-17T06:26:18;1.05;;;0.95;;
12308;SDS011;6217;48.150;17.142;2023-05-17T06:30:24;1.20;;;0.63;;
12308;SDS011;6217;48.150;17.142;2023-05-17T06:34:31;0.60;;;0.60;;
12308;SDS011;6217;48.150;17.142;2023-05-17T06:38:37;0.88;;;0.80;;
12308;SDS011;6217;48.150;17.142;2023-05-17T06:42:43;1.30;;;1.20;;
12308;SDS011;6217;48.150;17.142;2023-05-17T06:46:50;1.50;;;0.93;;
12308;SDS011;6217;48.150;17.142;2023-05-17T06:50:56;2.00;;;0.90;;
12308;SDS011;6217;48.150;17.142;2023-05-17T06:55:02;1.98;;;1.63;;
12308;SDS011;6217;48.150;17.142;2023-05-17T06:59:08;1.00;;;0.88;;
12308;SDS011;6217;48.150;17.142;2023-05-17T07:03:14;1.35;;;0.70;;
12308;SDS011;6217;48.150;17.142;2023-05-17T07:07:20;1.10;;;1.00;;
12308;SDS011;6217;48.150;17.142;2023-05-17T07:11:26;1.38;;;0.85;;
12308;SDS011;6217;48.150;17.142;2023-05-17T07:15:32;1.77;;;1.10;;
12308;SDS011;6217;48.150;17.142;2023-05-17T07:19:38;0.82;;;0.60;;
12308;SDS011;6217;48.150;17.142;2023-05-17T07:23:44;0.50;;;0.50;;
12308;SDS011;6217;48.150;17.142;2023-05-17T07:27:50;1.10;;;0.60;;
12308;SDS011;6217;48.150;17.142;2023-05-17T07:31:56;0.50;;;0.50;;
12308;SDS011;6217;48.150;17.142;2023-05-17T07:36:02;0.47;;;0.47;;
12308;SDS011;6217;48.150;17.142;2023-05-17T07:40:09;0.40;;;0.40;;
12308;SDS011;6217;48.150;17.142;2023-05-17T07:44:15;0.55;;;0.55;;
12308;SDS011;6217;48.150;17.142;2023-05-17T07:48:21;0.60;;;0.52;;
12308;SDS011;6217;48.150;17.142;2023-05-17T07:52:27;1.20;;;0.93;;
12308;SDS011;6217;48.150;17.142;2023-05-17T07:56:33;0.95;;;0.65;;
12308;SDS011;6217;48.150;17.142;2023-05-17T08:00:39;0.60;;;0.60;;
12308;SDS011;6217;48.150;17.142;2023-05-17T08:04:46;0.77;;;0.70;;
12308;SDS011;6217;48.150;17.142;2023-05-17T08:08:52;0.82;;;0.73;;
12308;SDS011;6217;48.150;17.142;2023-05-17T08:12:58;1.67;;;0.80;;
12308;SDS011;6217;48.150;17.142;2023-05-17T08:17:04;1.48;;;0.70;;
12308;SDS011;6217;48.150;17.142;2023-05-17T08:21:10;1.35;;;1.10;;
12308;SDS011;6217;48.150;17.142;2023-05-17T08:25:16;2.25;;;0.80;;
12308;SDS011;6217;48.150;17.142;2023-05-17T08:29:24;2.25;;;0.90;;
12308;SDS011;6217;48.150;17.142;2023-05-17T08:33:29;0.73;;;0.60;;
12308;SDS011;6217;48.150;17.142;2023-05-17T08:37:36;0.63;;;0.63;;
12308;SDS011;6217;48.150;17.142;2023-05-17T08:41:42;2.45;;;0.70;;
12308;SDS011;6217;48.150;17.142;2023-05-17T08:45:51;0.70;;;0.70;;
12308;SDS011;6217;48.150;17.142;2023-05-17T08:49:58;0.98;;;0.70;;
12308;SDS011;6217;48.150;17.142;2023-05-17T08:54:04;3.72;;;1.45;;
12308;SDS011;6217;48.150;17.142;2023-05-17T08:58:12;1.27;;;1.17;;
12308;SDS011;6217;48.150;17.142;2023-05-17T09:02:23;0.70;;;0.70;;
12308;SDS011;6217;48.150;17.142;2023-05-17T09:06:29;1.25;;;0.65;;
12308;SDS011;6217;48.150;17.142;2023-05-17T09:10:37;0.98;;;0.88;;
12308;SDS011;6217;48.150;17.142;2023-05-17T09:14:47;2.17;;;0.82;;
12308;SDS011;6217;48.150;17.142;2023-05-17T09:18:54;0.95;;;0.80;;
12308;SDS011;6217;48.150;17.142;2023-05-17T09:23:02;0.77;;;0.77;;
12308;SDS011;6217;48.150;17.142;2023-05-17T09:27:13;0.50;;;0.50;;
12308;SDS011;6217;48.150;17.142;2023-05-17T09:31:21;0.60;;;0.50;;
12308;SDS011;6217;48.150;17.142;2023-05-17T09:35:27;0.80;;;0.68;;
12308;SDS011;6217;48.150;17.142;2023-05-17T09:39:34;1.45;;;1.33;;
12308;SDS011;6217;48.150;17.142;2023-05-17T09:43:42;1.67;;;0.60;;
12308;SDS011;6217;48.150;17.142;2023-05-17T09:47:48;0.55;;;0.55;;
12308;SDS011;6217;48.150;17.142;2023-05-17T09:51:55;0.93;;;0.75;;
12308;SDS011;6217;48.150;17.142;2023-05-17T09:56:01;0.75;;;0.60;;
12308;SDS011;6217;48.150;17.142;2023-05-17T10:00:09;0.60;;;0.60;;
12308;SDS011;6217;48.150;17.142;2023-05-17T10:04:18;0.75;;;0.60;;
12308;SDS011;6217;48.150;17.142;2023-05-17T10:08:28;1.15;;;0.80;;
12308;SDS011;6217;48.150;17.142;2023-05-17T10:12:35;0.70;;;0.70;;
12308;SDS011;6217;48.150;17.142;2023-05-17T10:16:44;0.80;;;0.80;;
12308;SDS011;6217;48.150;17.142;2023-05-17T10:20:51;2.55;;;0.73;;
12308;SDS011;6217;48.150;17.142;2023-05-17T10:24:57;0.70;;;0.70;;
12308;SDS011;6217;48.150;17.142;2023-05-17T10:29:03;0.80;;;0.60;;
12308;SDS011;6217;48.150;17.142;2023-05-17T10:33:10;4.95;;;1.25;;
12308;SDS011;6217;48.150;17.142;2023-05-17T10:37:18;0.70;;;0.70;;
12308;SDS011;6217;48.150;17.142;2023-05-17T10:41:28;1.77;;;1.00;;
12308;SDS011;6217;48.150;17.142;2023-05-17T10:45:37;1.15;;;0.90;;
12308;SDS011;6217;48.150;17.142;2023-05-17T10:49:46;1.27;;;0.88;;
12308;SDS011;6217;48.150;17.142;2023-05-17T10:54:10;3.13;;;0.90;;
12308;SDS011;6217;48.150;17.142;2023-05-17T10:58:23;3.65;;;0.90;;
12308;SDS011;6217;48.150;17.142;2023-05-17T11:02:31;6.18;;;2.30;;
12308;SDS011;6217;48.150;17.142;2023-05-17T11:06:37;3.55;;;1.17;;
12308;SDS011;6217;48.150;17.142;2023-05-17T11:15:24;1.75;;;1.13;;
12308;SDS011;6217;48.150;17.142;2023-05-17T11:19:30;6.28;;;1.80;;
12308;SDS011;6217;48.150;17.142;2023-05-17T11:23:36;1.30;;;1.00;;
12308;SDS011;6217;48.150;17.142;2023-05-17T11:27:44;5.32;;;1.30;;
12308;SDS011;6217;48.150;17.142;2023-05-17T11:31:53;2.15;;;0.90;;
12308;SDS011;6217;48.150;17.142;2023-05-17T11:36:02;6.30;;;1.73;;
12308;SDS011;6217;48.150;17.142;2023-05-17T11:40:11;2.53;;;1.10;;
12308;SDS011;6217;48.150;17.142;2023-05-17T11:48:35;1.70;;;1.23;;
12308;SDS011;6217;48.150;17.142;2023-05-17T11:52:42;2.40;;;1.00;;
12308;SDS011;6217;48.150;17.142;2023-05-17T11:56:48;3.00;;;1.67;;
12308;SDS011;6217;48.150;17.142;2023-05-17T12:00:55;1.15;;;0.95;;
12308;SDS011;6217;48.150;17.142;2023-05-17T12:05:03;5.30;;;1.50;;
12308;SDS011;6217;48.150;17.142;2023-05-17T12:09:09;2.35;;;1.00;;
12308;SDS011;6217;48.150;17.142;2023-05-17T12:13:17;5.30;;;0.95;;
12308;SDS011;6217;48.150;17.142;2023-05-17T12:17:27;1.23;;;1.10;;
12308;SDS011;6217;48.150;17.142;2023-05-17T12:21:41;1.98;;;0.90;;
12308;SDS011;6217;48.150;17.142;2023-05-17T12:25:47;1.35;;;1.15;;
12308;SDS011;6217;48.150;17.142;2023-05-17T12:29:53;3.67;;;1.20;;
12308;SDS011;6217;48.150;17.142;2023-05-17T12:34:00;3.10;;;1.10;;
12308;SDS011;6217;48.150;17.142;2023-05-17T12:38:09;2.67;;;1.40;;
12308;SDS011;6217;48.150;17.142;2023-05-17T12:42:16;5.43;;;1.10;;
12308;SDS011;6217;48.150;17.142;2023-05-17T12:46:22;1.40;;;0.63;;
12308;SDS011;6217;48.150;17.142;2023-05-17T12:50:28;0.95;;;0.77;;
12308;SDS011;6217;48.150;17.142;2023-05-17T12:54:35;1.75;;;0.70;;
12308;SDS011;6217;48.150;17.142;2023-05-17T12:59:02;0.75;;;0.75;;
12308;SDS011;6217;48.150;17.142;2023-05-17T13:03:14;1.35;;;0.70;;
12308;SDS011;6217;48.150;17.142;2023-05-17T13:07:20;0.90;;;0.60;;
12308;SDS011;6217;48.150;17.142;2023-05-17T13:11:28;1.08;;;0.70;;
12308;SDS011;6217;48.150;17.142;2023-05-17T13:15:34;1.55;;;0.75;;
12308;SDS011;6217;48.150;17.142;2023-05-17T13:19:40;1.60;;;0.93;;
12308;SDS011;6217;48.150;17.142;2023-05-17T13:23:47;1.20;;;1.05;;
12308;SDS011;6217;48.150;17.142;2023-05-17T13:27:54;1.15;;;0.80;;
12308;SDS011;6217;48.150;17.142;2023-05-17T13:32:01;3.67;;;0.70;;
12308;SDS011;6217;48.150;17.142;2023-05-17T13:36:07;1.73;;;1.60;;
12308;SDS011;6217;48.150;17.142;2023-05-17T13:40:13;2.72;;;0.80;;
12308;SDS011;6217;48.150;17.142;2023-05-17T13:44:19;2.22;;;0.80;;
12308;SDS011;6217;48.150;17.142;2023-05-17T13:48:25;1.38;;;0.90;;
12308;SDS011;6217;48.150;17.142;2023-05-17T13:52:31;1.58;;;0.73;;
12308;SDS011;6217;48.150;17.142;2023-05-17T13:56:37;1.65;;;1.10;;
12308;SDS011;6217;48.150;17.142;2023-05-17T14:00:43;2.17;;;0.93;;
12308;SDS011;6217;48.150;17.142;2023-05-17T14:04:49;3.67;;;1.00;;
12308;SDS011;6217;48.150;17.142;2023-05-17T14:08:55;2.25;;;1.10;;
12308;SDS011;6217;48.150;17.142;2023-05-17T14:13:03;1.13;;;0.80;;
12308;SDS011;6217;48.150;17.142;2023-05-17T14:17:09;0.98;;;0.80;;
12308;SDS011;6217;48.150;17.142;2023-05-17T14:21:15;0.80;;;0.80;;
12308;SDS011;6217;48.150;17.142;2023-05-17T14:25:21;0.98;;;0.80;;
12308;SDS011;6217;48.150;17.142;2023-05-17T14:29:27;3.08;;;1.88;;
12308;SDS011;6217;48.150;17.142;2023-05-17T14:33:34;1.30;;;1.00;;
12308;SDS011;6217;48.150;17.142;2023-05-17T14:37:40;2.80;;;1.92;;
12308;SDS011;6217;48.150;17.142;2023-05-17T14:41:47;2.10;;;0.70;;
12308;SDS011;6217;48.150;17.142;2023-05-17T14:45:53;1.15;;;1.02;;
12308;SDS011;6217;48.150;17.142;2023-05-17T14:49:59;1.40;;;0.98;;
12308;SDS011;6217;48.150;17.142;2023-05-17T14:54:05;1.98;;;0.90;;
12308;SDS011;6217;48.150;17.142;2023-05-17T14:58:11;2.05;;;0.93;;
12308;SDS011;6217;48.150;17.142;2023-05-17T15:02:17;1.75;;;1.20;;
12308;SDS011;6217;48.150;17.142;2023-05-17T15:06:23;1.50;;;1.08;;
12308;SDS011;6217;48.150;17.142;2023-05-17T15:10:30;1.65;;;1.23;;
12308;SDS011;6217;48.150;17.142;2023-05-17T17:08:25;4.47;;;2.33;;
12308;SDS011;6217;48.150;17.142;2023-05-17T17:12:31;5.95;;;2.40;;
12308;SDS011;6217;48.150;17.142;2023-05-17T17:16:37;3.83;;;2.10;;
12308;SDS011;6217;48.150;17.142;2023-05-17T17:20:44;6.82;;;2.50;;
12308;SDS011;6217;48.150;17.142;2023-05-17T17:24:50;5.55;;;2.63;;
12308;SDS011;6217;48.150;17.142;2023-05-17T17:28:56;3.20;;;2.05;;
12308;SDS011;6217;48.150;17.142;2023-05-17T17:37:51;2.75;;;1.70;;
12308;SDS011;6217;48.150;17.142;2023-05-17T17:41:57;5.20;;;2.17;;
12308;SDS011;6217;48.150;17.142;2023-05-17T17:46:03;2.25;;;1.95;;
12308;SDS011;6217;48.150;17.142;2023-05-17T17:50:09;6.07;;;2.47;;
12308;SDS011;6217;48.150;17.142;2023-05-17T17:54:15;4.82;;;2.80;;
12308;SDS011;6217;48.150;17.142;2023-05-17T17:58:21;5.55;;;2.10;;
12308;SDS011;6217;48.150;17.142;2023-05-17T18:02:27;3.47;;;1.75;;
12308;SDS011;6217;48.150;17.142;2023-05-17T18:06:33;7.28;;;2.20;;
12308;SDS011;6217;48.150;17.142;2023-05-17T18:10:39;3.20;;;1.73;;
12308;SDS011;6217;48.150;17.142;2023-05-17T18:14:45;4.22;;;2.05;;
12308;SDS011;6217;48.150;17.142;2023-05-17T18:18:51;3.40;;;2.60;;
12308;SDS011;6217;48.150;17.142;2023-05-17T18:22:57;5.82;;;3.05;;
12308;SDS011;6217;48.150;17.142;2023-05-17T18:27:03;5.18;;;2.20;;
12308;SDS011;6217;48.150;17.142;2023-05-17T18:31:09;7.90;;;2.90;;
12308;SDS011;6217;48.150;17.142;2023-05-17T18:35:15;5.68;;;3.15;;
12308;SDS011;6217;48.150;17.142;2023-05-17T18:39:21;5.55;;;2.35;;
12308;SDS011;6217;48.150;17.142;2023-05-17T18:43:28;5.93;;;3.10;;
12308;SDS011;6217;48.150;17.142;2023-05-17T18:47:36;5.35;;;2.75;;
12308;SDS011;6217;48.150;17.142;2023-05-17T18:51:42;3.47;;;2.47;;
12308;SDS011;6217;48.150;17.142;2023-05-17T18:55:48;7.28;;;3.72;;
12308;SDS011;6217;48.150;17.142;2023-05-17T18:59:54;4.47;;;2.10;;
12308;SDS011;6217;48.150;17.142;2023-05-17T19:04:00;4.97;;;3.72;;
12308;SDS011;6217;48.150;17.142;2023-05-17T19:08:06;4.70;;;2.42;;
12308;SDS011;6217;48.150;17.142;2023-05-17T19:12:12;7.15;;;3.22;;
12308;SDS011;6217;48.150;17.142;2023-05-17T19:16:18;4.57;;;2.35;;
12308;SDS011;6217;48.150;17.142;2023-05-17T19:20:24;8.13;;;3.20;;
12308;SDS011;6217;48.150;17.142;2023-05-17T19:24:30;8.40;;;2.60;;
12308;SDS011;6217;48.150;17.142;2023-05-17T19:28:36;5.65;;;3.05;;
12308;SDS011;6217;48.150;17.142;2023-05-17T19:32:43;5.43;;;2.67;;
12308;SDS011;6217;48.150;17.142;2023-05-17T19:42:13;4.43;;;2.40;;
12308;SDS011;6217;48.150;17.142;2023-05-17T19:46:19;9.13;;;3.22;;
12308;SDS011;6217;48.150;17.142;2023-05-17T19:50:25;6.78;;;3.03;;
12308;SDS011;6217;48.150;17.142;2023-05-17T19:54:31;5.18;;;3.00;;
12308;SDS011;6217;48.150;17.142;2023-05-17T19:58:38;9.57;;;4.28;;
12308;SDS011;6217;48.150;17.142;2023-05-17T20:02:44;6.95;;;2.50;;
12308;SDS011;6217;48.150;17.142;2023-05-17T20:06:52;3.55;;;2.67;;
12308;SDS011;6217;48.150;17.142;2023-05-17T20:10:58;3.83;;;3.38;;
12308;SDS011;6217;48.150;17.142;2023-05-17T20:15:04;4.80;;;2.28;;
12308;SDS011;6217;48.150;17.142;2023-05-17T20:19:11;9.38;;;3.45;;
12308;SDS011;6217;48.150;17.142;2023-05-17T20:23:17;5.60;;;2.60;;
12308;SDS011;6217;48.150;17.142;2023-05-17T20:27:23;3.63;;;2.60;;
12308;SDS011;6217;48.150;17.142;2023-05-17T20:31:30;10.43;;;3.55;;
12308;SDS011;6217;48.150;17.142;2023-05-17T20:35:36;8.38;;;2.95;;
12308;SDS011;6217;48.150;17.142;2023-05-17T20:39:42;11.88;;;3.88;;
12308;SDS011;6217;48.150;17.142;2023-05-17T20:43:48;10.10;;;3.58;;
12308;SDS011;6217;48.150;17.142;2023-05-17T20:47:54;10.20;;;3.25;;
12308;SDS011;6217;48.150;17.142;2023-05-17T20:52:00;8.57;;;3.85;;
12308;SDS011;6217;48.150;17.142;2023-05-17T20:56:07;7.22;;;2.72;;
12308;SDS011;6217;48.150;17.142;2023-05-17T21:00:15;6.65;;;3.50;;
12308;SDS011;6217;48.150;17.142;2023-05-17T21:04:22;5.43;;;3.10;;
12308;SDS011;6217;48.150;17.142;2023-05-17T21:08:28;9.18;;;3.38;;
12308;SDS011;6217;48.150;17.142;2023-05-17T21:12:34;6.03;;;3.10;;
12308;SDS011;6217;48.150;17.142;2023-05-17T21:16:40;8.45;;;3.97;;
12308;SDS011;6217;48.150;17.142;2023-05-17T21:20:47;12.40;;;4.13;;
12308;SDS011;6217;48.150;17.142;2023-05-17T21:24:56;8.53;;;3.90;;
12308;SDS011;6217;48.150;17.142;2023-05-17T21:29:02;6.00;;;3.42;;
12308;SDS011;6217;48.150;17.142;2023-05-17T21:33:08;6.97;;;3.08;;
12308;SDS011;6217;48.150;17.142;2023-05-17T21:37:14;6.45;;;3.15;;
12308;SDS011;6217;48.150;17.142;2023-05-17T21:41:21;6.95;;;3.63;;
12308;SDS011;6217;48.150;17.142;2023-05-17T21:45:27;5.75;;;4.63;;
12308;SDS011;6217;48.150;17.142;2023-05-17T21:49:32;8.20;;;3.58;;
12308;SDS011;6217;48.150;17.142;2023-05-17T21:53:38;7.18;;;3.22;;
12308;SDS011;6217;48.150;17.142;2023-05-17T21:57:44;7.07;;;3.97;;
12308;SDS011;6217;48.150;17.142;2023-05-17T22:01:52;7.65;;;3.25;;
12308;SDS011;6217;48.150;17.142;2023-05-17T22:05:59;5.40;;;3.60;;
12308;SDS011;6217;48.150;17.142;2023-05-17T22:10:05;8.60;;;4.28;;
12308;SDS011;6217;48.150;17.142;2023-05-17T22:14:12;8.15;;;3.17;;
12308;SDS011;6217;48.150;17.142;2023-05-17T22:18:18;7.35;;;3.25;;
12308;SDS011;6217;48.150;17.142;2023-05-17T22:22:24;8.55;;;3.38;;
12308;SDS011;6217;48.150;17.142;2023-05-17T22:26:30;12.73;;;3.80;;
12308;SDS011;6217;48.150;17.142;2023-05-17T22:30:36;6.93;;;3.08;;
12308;SDS011;6217;48.150;17.142;2023-05-17T22:34:42;8.57;;;3.53;;
12308;SDS011;6217;48.150;17.142;2023-05-17T22:38:48;6.05;;;4.03;;
12308;SDS011;6217;48.150;17.142;2023-05-17T22:42:54;9.93;;;4.30;;
12308;SDS011;6217;48.150;17.142;2023-05-17T22:47:02;7.07;;;3.67;;
12308;SDS011;6217;48.150;17.142;2023-05-17T22:51:08;7.70;;;3.40;;
12308;SDS011;6217;48.150;17.142;2023-05-17T22:55:16;8.75;;;3.22;;
12308;SDS011;6217;48.150;17.142;2023-05-17T22:59:22;4.15;;;2.85;;
12308;SDS011;6217;48.150;17.142;2023-05-17T23:03:28;7.72;;;3.40;;
12308;SDS011;6217;48.150;17.142;2023-05-17T23:07:35;11.93;;;3.47;;
12308;SDS011;6217;48.150;17.142;2023-05-17T23:11:42;6.85;;;2.90;;
12308;SDS011;6217;48.150;17.142;2023-05-17T23:15:51;9.10;;;3.80;;
12308;SDS011;6217;48.150;17.142;2023-05-17T23:19:57;9.73;;;2.95;;
12308;SDS011;6217;48.150;17.142;2023-05-17T23:24:17;8.10;;;3.92;;
12308;SDS011;6217;48.150;17.142;2023-05-17T23:28:23;10.35;;;3.05;;
12308;SDS011;6217;48.150;17.142;2023-05-17T23:32:29;7.70;;;3.22;;
12308;SDS011;6217;48.150;17.142;2023-05-17T23:36:38;7.97;;;3.45;;
12308;SDS011;6217;48.150;17.142;2023-05-17T23:40:44;12.55;;;3.72;;
12308;SDS011;6217;48.150;17.142;2023-05-17T23:44:50;6.97;;;3.05;;
12308;SDS011;6217;48.150;17.142;2023-05-17T23:48:56;9.77;;;3.03;;
12308;SDS011;6217;48.150;17.142;2023-05-17T23:53:02;4.88;;;2.90;;
12308;SDS011;6217;48.150;17.142;2023-05-17T23:57:08;11.38;;;3.90;;
